Wetterstation Vordersexau
Wetterdaten: Woche 05.02.18 - 11.02.18 (KW6)
Datum Zeit Temp. A. Feuchte A. Luftdruck Regen Wind Richtung Taupunkt Windchill Windben
05.02.2018 00:00 -0,1 C 86 % 1016,3 hPa 0,0 l/m 0,0 km/h NW -2,2 C -0,1 C 0,0 km/h
05.02.2018 01:00 -0,1 C 86 % 1016,6 hPa 0,0 l/m 0,0 km/h N-NW -2,2 C -0,1 C 0,0 km/h
05.02.2018 02:00 -0,4 C 86 % 1016,8 hPa 0,0 l/m 0,0 km/h N-NW -2,4 C -0,4 C 0,0 km/h
05.02.2018 03:00 -0,7 C 86 % 1016,7 hPa 0,0 l/m 0,0 km/h W -2,7 C -0,7 C 0,0 km/h
05.02.2018 04:00 -0,7 C 86 % 1016,6 hPa 0,0 l/m 0,0 km/h W -2,7 C -0,7 C 0,0 km/h
05.02.2018 05:00 -1,0 C 86 % 1016,8 hPa 0,0 l/m 0,0 km/h W -3,0 C -1,0 C 0,0 km/h
05.02.2018 06:00 -1,0 C 86 % 1016,7 hPa 0,0 l/m 0,0 km/h N-NO -3,0 C -1,0 C 0,0 km/h
05.02.2018 07:00 -1,0 C 86 % 1017,1 hPa 0,0 l/m 0,0 km/h N-NO -3,0 C -1,0 C 0,0 km/h
05.02.2018 08:00 -0,7 C 86 % 1016,9 hPa 0,0 l/m 0,0 km/h N-NW -2,7 C -0,7 C 0,0 km/h
05.02.2018 09:00 -0,2 C 86 % 1017,0 hPa 0,0 l/m 0,0 km/h W -2,3 C -0,2 C 0,0 km/h
05.02.2018 10:00 3,6 C 86 % 1016,7 hPa 0,0 l/m 0,0 km/h W 1,5 C 3,6 C 0,0 km/h
05.02.2018 11:00 4,5 C 79 % 1016,6 hPa 0,0 l/m 0,0 km/h S-SW 1,2 C 4,5 C 0,0 km/h
05.02.2018 12:00 3,8 C 81 % 1016,7 hPa 0,0 l/m 0,0 km/h W-NW 0,8 C 3,8 C 0,0 km/h
05.02.2018 13:00 4,9 C 78 % 1016,3 hPa 0,0 l/m 0,0 km/h W-SW 1,4 C 4,9 C 0,0 km/h
05.02.2018 14:00 8,4 C 68 % 1015,3 hPa 0,0 l/m 0,0 km/h S-SW 2,8 C 8,4 C 0,0 km/h
05.02.2018 15:00 9,2 C 64 % 1014,5 hPa 0,0 l/m 0,0 km/h S-SW 2,8 C 9,2 C 0,0 km/h
05.02.2018 16:00 3,9 C 76 % 1014,6 hPa 0,0 l/m 0,0 km/h W 0,1 C 3,9 C 0,0 km/h
05.02.2018 17:00 2,1 C 81 % 1014,4 hPa 0,0 l/m 0,0 km/h W -0,8 C 2,1 C 0,0 km/h
05.02.2018 18:00 1,3 C 82 % 1014,5 hPa 0,0 l/m 0,0 km/h W -1,4 C 1,3 C 0,0 km/h
05.02.2018 19:00 0,7 C 83 % 1014,4 hPa 0,0 l/m 0,0 km/h W -1,8 C 0,7 C 0,0 km/h
05.02.2018 20:00 0,3 C 84 % 1014,6 hPa 0,0 l/m 0,0 km/h W -2,1 C 0,3 C 0,0 km/h
05.02.2018 21:00 0,5 C 85 % 1014,5 hPa 0,0 l/m 0,0 km/h N-NW -1,7 C 0,5 C 0,0 km/h
05.02.2018 22:00 0,6 C 85 % 1013,9 hPa 0,0 l/m 0,0 km/h N-NW -1,6 C 0,6 C 0,0 km/h
05.02.2018 23:00 -0,6 C 86 % 1013,8 hPa 0,0 l/m 0,0 km/h N-NW -2,6 C -0,6 C 0,0 km/h
06.02.2018 00:00 -1,2 C 86 % 1013,3 hPa 0,0 l/m 0,0 km/h N-NW -3,2 C -1,2 C 0,0 km/h
06.02.2018 01:00 -1,4 C 86 % 1012,8 hPa 0,0 l/m 0,0 km/h N-NW -3,4 C -1,4 C 0,0 km/h
06.02.2018 02:00 -1,7 C 86 % 1012,3 hPa 0,0 l/m 0,0 km/h N-NW -3,7 C -1,7 C 0,0 km/h
06.02.2018 03:00 -1,4 C 86 % 1011,7 hPa 0,0 l/m 0,0 km/h N-NW -3,4 C -1,4 C 0,0 km/h
06.02.2018 04:00 -1,1 C 86 % 1011,5 hPa 0,0 l/m 0,0 km/h N-NW -3,1 C -1,1 C 0,0 km/h
06.02.2018 05:00 -0,9 C 86 % 1011,2 hPa 0,0 l/m 0,0 km/h W-NW -2,9 C -0,9 C 0,0 km/h
06.02.2018 06:00 -0,8 C 86 % 1010,6 hPa 0,0 l/m 0,0 km/h S-SO -2,8 C -0,8 C 0,0 km/h
06.02.2018 07:00 -1,6 C 86 % 1010,5 hPa 0,0 l/m 0,0 km/h S-SO -3,6 C -1,6 C 0,0 km/h
06.02.2018 08:00 -0,9 C 86 % 1010,1 hPa 0,0 l/m 0,0 km/h S-SO -2,9 C -0,9 C 0,0 km/h
06.02.2018 09:00 1,8 C 86 % 1009,4 hPa 0,0 l/m 0,0 km/h W-NW -0,3 C 1,8 C 0,0 km/h
06.02.2018 10:00 3,4 C 83 % 1009,2 hPa 0,0 l/m 0,0 km/h W-NW 0,8 C 3,4 C 0,0 km/h
06.02.2018 11:00 3,5 C 80 % 1008,9 hPa 0,0 l/m 0,0 km/h NW 0,4 C 3,5 C 0,0 km/h
06.02.2018 12:00 4,9 C 79 % 1008,0 hPa 0,0 l/m 0,0 km/h W-SW 1,6 C 4,9 C 0,0 km/h
06.02.2018 13:00 8,6 C 67 % 1007,1 hPa 0,0 l/m 0,0 km/h W-SW 2,8 C 8,6 C 0,0 km/h
06.02.2018 14:00 9,5 C 61 % 1006,4 hPa 0,0 l/m 0,0 km/h NW 2,4 C 9,5 C 0,0 km/h
06.02.2018 15:00 9,3 C 61 % 1006,4 hPa 0,0 l/m 0,0 km/h W 2,2 C 9,3 C 0,0 km/h
06.02.2018 16:00 5,5 C 69 % 1006,6 hPa 0,0 l/m 0,0 km/h W 0,3 C 5,5 C 0,0 km/h
06.02.2018 17:00 0,8 C 76 % 1006,5 hPa 0,0 l/m 0,0 km/h W -2,9 C 0,8 C 0,0 km/h
06.02.2018 18:00 -1,1 C 81 % 1006,6 hPa 0,0 l/m 0,0 km/h W -3,9 C -1,1 C 0,0 km/h
06.02.2018 19:00 -1,6 C 84 % 1006,3 hPa 0,0 l/m 0,0 km/h W -3,9 C -1,6 C 0,0 km/h
06.02.2018 20:00 -2,4 C 84 % 1006,6 hPa 0,0 l/m 0,0 km/h S-SW -4,7 C -2,4 C 0,0 km/h
06.02.2018 21:00 -2,2 C 86 % 1007,0 hPa 0,0 l/m 0,0 km/h S-SW -4,2 C -2,2 C 0,0 km/h
06.02.2018 22:00 -1,4 C 86 % 1007,3 hPa 0,0 l/m 0,0 km/h S-SW -3,4 C -1,4 C 0,0 km/h
06.02.2018 23:00 -0,8 C 86 % 1007,3 hPa 0,0 l/m 0,0 km/h S-SW -2,8 C -0,8 C 0,0 km/h
07.02.2018 00:00 -0,5 C 86 % 1007,4 hPa 0,0 l/m 0,0 km/h S-SW -2,5 C -0,5 C 0,0 km/h
07.02.2018 01:00 -0,2 C 86 % 1007,2 hPa 0,0 l/m 0,0 km/h S-SW -2,3 C -0,2 C 0,0 km/h
07.02.2018 02:00 -1,2 C 86 % 1007,5 hPa 0,0 l/m 0,0 km/h S-SW -3,2 C -1,2 C 0,0 km/h
07.02.2018 03:00 -0,7 C 86 % 1007,6 hPa 0,0 l/m 0,0 km/h S-SW -2,7 C -0,7 C 0,0 km/h
07.02.2018 04:00 -0,6 C 86 % 1007,5 hPa 0,0 l/m 0,0 km/h S-SW -2,6 C -0,6 C 0,0 km/h
07.02.2018 05:00 -0,5 C 86 % 1007,6 hPa 0,0 l/m 0,0 km/h SW -2,5 C -0,5 C 0,0 km/h
07.02.2018 06:00 -0,5 C 86 % 1007,7 hPa 0,0 l/m 0,0 km/h SW -2,5 C -0,5 C 0,0 km/h
07.02.2018 07:00 -0,5 C 86 % 1008,4 hPa 0,0 l/m 0,0 km/h SW -2,5 C -0,5 C 0,0 km/h
07.02.2018 08:00 -0,5 C 85 % 1008,7 hPa 0,0 l/m 0,0 km/h W-SW -2,7 C -0,5 C 0,0 km/h
07.02.2018 09:00 -0,4 C 85 % 1009,2 hPa 0,0 l/m 0,0 km/h W-SW -2,6 C -0,4 C 0,0 km/h
07.02.2018 10:00 -0,1 C 84 % 1009,4 hPa 0,0 l/m 0,0 km/h W-SW -2,5 C -0,1 C 0,0 km/h
07.02.2018 11:00 0,7 C 84 % 1009,8 hPa 0,0 l/m 0,0 km/h W -1,7 C 0,7 C 0,0 km/h
07.02.2018 12:00 1,3 C 86 % 1010,0 hPa 0,0 l/m 0,0 km/h W -0,8 C 1,3 C 0,0 km/h
07.02.2018 13:00 1,8 C 86 % 1010,1 hPa 0,0 l/m 0,0 km/h W-NW -0,3 C 1,8 C 0,0 km/h
07.02.2018 14:00 1,9 C 84 % 1010,1 hPa 0,0 l/m 7,8 km/h W-NW -0,5 C 0,5 C 4,3 km/h
07.02.2018 15:00 1,8 C 83 % 1010,3 hPa 0,0 l/m 0,0 km/h W-NW -0,8 C 1,8 C 0,0 km/h
07.02.2018 16:00 1,1 C 82 % 1010,7 hPa 0,0 l/m 0,0 km/h W -1,6 C 1,1 C 0,0 km/h
07.02.2018 17:00 0,5 C 83 % 1011,3 hPa 0,0 l/m 1,3 km/h W -2,0 C 0,5 C 0,7 km/h
07.02.2018 18:00 0,4 C 84 % 1012,3 hPa 0,0 l/m 0,0 km/h SW -2,0 C 0,4 C 0,0 km/h
07.02.2018 19:00 0,3 C 85 % 1012,6 hPa 0,0 l/m 0,0 km/h W-SW -1,9 C 0,3 C 0,0 km/h
07.02.2018 20:00 0,3 C 85 % 1012,8 hPa 0,0 l/m 0,0 km/h W-SW -1,9 C 0,3 C 0,0 km/h
07.02.2018 21:00 0,1 C 85 % 1013,3 hPa 0,0 l/m 0,0 km/h W-SW -2,1 C 0,1 C 0,0 km/h
07.02.2018 22:00 -0,2 C 86 % 1013,5 hPa 0,0 l/m 0,0 km/h W-SW -2,3 C -0,2 C 0,0 km/h
07.02.2018 23:00 -0,2 C 86 % 1013,7 hPa 0,0 l/m 0,0 km/h W-SW -2,3 C -0,2 C 0,0 km/h
08.02.2018 00:00 -0,4 C 86 % 1014,1 hPa 0,0 l/m 0,0 km/h W-SW -2,4 C -0,4 C 0,0 km/h
08.02.2018 01:00 -0,5 C 86 % 1014,0 hPa 0,0 l/m 0,0 km/h W-SW -2,5 C -0,5 C 0,0 km/h
08.02.2018 02:00 -0,8 C 86 % 1014,1 hPa 0,0 l/m 0,0 km/h W-SW -2,8 C -0,8 C 0,0 km/h
08.02.2018 03:00 -0,8 C 86 % 1014,1 hPa 0,0 l/m 0,0 km/h W-SW -2,8 C -0,8 C 0,0 km/h
08.02.2018 04:00 -0,6 C 86 % 1014,5 hPa 0,0 l/m 0,0 km/h W-SW -2,6 C -0,6 C 0,0 km/h
08.02.2018 05:00 -1,0 C 86 % 1014,9 hPa 0,0 l/m 0,0 km/h W-SW -3,0 C -1,0 C 0,0 km/h
08.02.2018 06:00 -0,6 C 86 % 1015,3 hPa 0,0 l/m 0,0 km/h W-SW -2,6 C -0,6 C 0,0 km/h
08.02.2018 07:00 -0,7 C 86 % 1015,6 hPa 0,0 l/m 0,0 km/h W-SW -2,7 C -0,7 C 0,0 km/h
08.02.2018 08:00 -0,7 C 86 % 1016,2 hPa 0,0 l/m 0,0 km/h W-SW -2,7 C -0,7 C 0,0 km/h
08.02.2018 09:00 2,1 C 83 % 1016,3 hPa 0,0 l/m 0,0 km/h W-NW -0,5 C 2,1 C 0,0 km/h
08.02.2018 10:00 2,5 C 85 % 1016,8 hPa 0,0 l/m 0,0 km/h S-SW 0,2 C 2,5 C 0,0 km/h
08.02.2018 11:00 3,2 C 84 % 1016,9 hPa 0,5 l/m 0,0 km/h W-NW 0,8 C 3,2 C 0,0 km/h
08.02.2018 12:00 4,9 C 78 % 1016,4 hPa 0,5 l/m 0,0 km/h W 1,4 C 4,9 C 0,0 km/h
08.02.2018 13:00 3,0 C 81 % 1016,2 hPa 0,0 l/m 0,0 km/h W 0,1 C 3,0 C 0,0 km/h
08.02.2018 14:00 3,8 C 79 % 1015,9 hPa 0,0 l/m 0,0 km/h W 0,5 C 3,8 C 0,0 km/h
08.02.2018 15:00 3,1 C 79 % 1015,9 hPa 0,0 l/m 0,0 km/h N -0,2 C 3,1 C 0,0 km/h
08.02.2018 16:00 2,8 C 80 % 1016,2 hPa 0,0 l/m 0,0 km/h N -0,3 C 2,8 C 0,0 km/h
08.02.2018 17:00 2,2 C 81 % 1016,3 hPa 0,0 l/m 0,0 km/h N -0,7 C 2,2 C 0,0 km/h
08.02.2018 18:00 2,0 C 82 % 1016,6 hPa 0,0 l/m 0,0 km/h W-NW -0,7 C 2,0 C 0,0 km/h
08.02.2018 19:00 1,7 C 83 % 1016,8 hPa 0,0 l/m 0,0 km/h W-NW -0,9 C 1,7 C 0,0 km/h
08.02.2018 20:00 1,3 C 83 % 1016,7 hPa 0,0 l/m 0,0 km/h W-NW -1,3 C 1,3 C 0,0 km/h
08.02.2018 21:00 1,0 C 84 % 1016,5 hPa 0,0 l/m 0,0 km/h W-NW -1,4 C 1,0 C 0,0 km/h
08.02.2018 22:00 0,9 C 84 % 1016,1 hPa 0,0 l/m 0,0 km/h W-NW -1,5 C 0,9 C 0,0 km/h
08.02.2018 23:00 0,9 C 85 % 1016,2 hPa 0,0 l/m 0,0 km/h W-NW -1,3 C 0,9 C 0,0 km/h
09.02.2018 00:00 0,8 C 85 % 1016,1 hPa 0,0 l/m 0,0 km/h W-NW -1,4 C 0,8 C 0,0 km/h
09.02.2018 01:00 0,6 C 85 % 1016,1 hPa 0,0 l/m 0,0 km/h W-NW -1,6 C 0,6 C 0,0 km/h
09.02.2018 02:00 0,6 C 85 % 1015,9 hPa 0,0 l/m 0,0 km/h W-NW -1,6 C 0,6 C 0,0 km/h
09.02.2018 03:00 0,5 C 86 % 1015,5 hPa 0,0 l/m 0,0 km/h W-NW -1,6 C 0,5 C 0,0 km/h
09.02.2018 04:00 0,4 C 86 % 1015,1 hPa 0,0 l/m 0,0 km/h W-NW -1,7 C 0,4 C 0,0 km/h
09.02.2018 05:00 0,4 C 86 % 1015,1 hPa 0,0 l/m 0,0 km/h W-NW -1,7 C 0,4 C 0,0 km/h
09.02.2018 06:00 0,4 C 86 % 1014,6 hPa 0,0 l/m 0,0 km/h W-NW -1,7 C 0,4 C 0,0 km/h
09.02.2018 07:00 0,4 C 86 % 1014,5 hPa 0,0 l/m 0,0 km/h W-NW -1,7 C 0,4 C 0,0 km/h
09.02.2018 08:00 0,8 C 86 % 1014,3 hPa 0,0 l/m 0,0 km/h W-NW -1,3 C 0,8 C 0,0 km/h
09.02.2018 09:00 1,6 C 86 % 1014,0 hPa 0,0 l/m 0,0 km/h W-NW -0,5 C 1,6 C 0,0 km/h
09.02.2018 10:00 2,3 C 85 % 1013,6 hPa 0,0 l/m 0,0 km/h W 0,0 C 2,3 C 0,0 km/h
09.02.2018 11:00 2,9 C 83 % 1013,2 hPa 0,0 l/m 0,0 km/h W-SW 0,3 C 2,9 C 0,0 km/h
09.02.2018 12:00 3,0 C 81 % 1012,4 hPa 0,0 l/m 0,0 km/h S 0,1 C 3,0 C 0,0 km/h
09.02.2018 13:00 3,9 C 80 % 1011,9 hPa 0,0 l/m 0,0 km/h O-SO 0,8 C 3,9 C 0,0 km/h
09.02.2018 14:00 4,1 C 76 % 1011,3 hPa 0,0 l/m 0,0 km/h SO 0,3 C 4,1 C 0,0 km/h
09.02.2018 15:00 4,1 C 75 % 1010,9 hPa 0,0 l/m 11,0 km/h O-SO 0,1 C 0,4 C 6,1 km/h
09.02.2018 16:00 3,5 C 77 % 1010,7 hPa 0,0 l/m 14,3 km/h S-SO -0,1 C -2,4 C 7,9 km/h
09.02.2018 17:00 2,9 C 78 % 1010,9 hPa 0,0 l/m 8,4 km/h S-SW -0,5 C 1,0 C 4,7 km/h
09.02.2018 18:00 3,1 C 78 % 1011,3 hPa 0,0 l/m 18,1 km/h SW -0,4 C -4,8 C 10,1 km/h
09.02.2018 19:00 2,9 C 76 % 1011,9 hPa 0,0 l/m 0,0 km/h S-SW -0,9 C 2,9 C 0,0 km/h
09.02.2018 20:00 2,6 C 77 % 1012,2 hPa 0,0 l/m 12,3 km/h S-SW -1,0 C -2,2 C 6,8 km/h
09.02.2018 21:00 2,6 C 77 % 1012,1 hPa 0,0 l/m 1,9 km/h S-SO -1,0 C 2,6 C 1,1 km/h
09.02.2018 22:00 2,3 C 78 % 1012,3 hPa 0,0 l/m 0,0 km/h SO -1,1 C 2,3 C 0,0 km/h
09.02.2018 23:00 2,1 C 79 % 1012,3 hPa 0,0 l/m 0,0 km/h SO -1,2 C 2,1 C 0,0 km/h
10.02.2018 00:00 1,4 C 80 % 1012,6 hPa 0,0 l/m 0,0 km/h SO -1,7 C 1,4 C 0,0 km/h
10.02.2018 01:00 1,2 C 82 % 1012,7 hPa 0,0 l/m 0,0 km/h SO -1,5 C 1,2 C 0,0 km/h
10.02.2018 02:00 1,3 C 83 % 1013,1 hPa 0,0 l/m 0,0 km/h W-SW -1,3 C 1,3 C 0,0 km/h
10.02.2018 03:00 1,4 C 84 % 1013,4 hPa 0,0 l/m 0,0 km/h W -1,0 C 1,4 C 0,0 km/h
10.02.2018 04:00 1,1 C 86 % 1013,8 hPa 0,0 l/m 0,0 km/h W -1,0 C 1,1 C 0,0 km/h
10.02.2018 05:00 0,9 C 86 % 1014,3 hPa 0,0 l/m 0,0 km/h W-SW -1,2 C 0,9 C 0,0 km/h
10.02.2018 06:00 0,9 C 86 % 1014,4 hPa 0,0 l/m 0,0 km/h W -1,2 C 0,9 C 0,0 km/h
10.02.2018 07:00 0,9 C 86 % 1015,1 hPa 0,0 l/m 0,0 km/h W -1,2 C 0,9 C 0,0 km/h
10.02.2018 08:00 1,3 C 85 % 1015,5 hPa 0,0 l/m 0,0 km/h SW -0,9 C 1,3 C 0,0 km/h
10.02.2018 09:00 2,5 C 83 % 1016,1 hPa 0,0 l/m 0,0 km/h W -0,1 C 2,5 C 0,0 km/h
10.02.2018 10:00 3,6 C 79 % 1016,0 hPa 0,0 l/m 13,6 km/h W-SW 0,3 C -1,8 C 7,6 km/h
10.02.2018 11:00 4,4 C 76 % 1016,1 hPa 0,0 l/m 7,8 km/h W 0,5 C 3,1 C 4,3 km/h
10.02.2018 12:00 4,5 C 75 % 1015,9 hPa 0,0 l/m 0,0 km/h W 0,5 C 4,5 C 0,0 km/h
10.02.2018 13:00 4,2 C 75 % 1015,6 hPa 0,0 l/m 7,8 km/h W-SW 0,2 C 2,9 C 4,3 km/h
10.02.2018 14:00 3,5 C 76 % 1015,4 hPa 0,0 l/m 10,4 km/h W -0,3 C 0,1 C 5,8 km/h
10.02.2018 15:00 3,6 C 76 % 1015,4 hPa 0,0 l/m 4,5 km/h SW -0,2 C 3,6 C 2,5 km/h
10.02.2018 16:00 3,6 C 76 % 1015,1 hPa 0,0 l/m 0,0 km/h W-SW -0,2 C 3,6 C 0,0 km/h
10.02.2018 17:00 2,9 C 78 % 1015,0 hPa 0,0 l/m 20,7 km/h SW -0,5 C -6,2 C 11,5 km/h
10.02.2018 18:00 2,7 C 80 % 1015,3 hPa 0,0 l/m 18,8 km/h W-SW -0,4 C -5,6 C 10,4 km/h
10.02.2018 19:00 2,3 C 78 % 1015,5 hPa 0,0 l/m 17,5 km/h SW -1,1 C -5,5 C 9,7 km/h
10.02.2018 20:00 2,2 C 76 % 1015,3 hPa 0,0 l/m 25,3 km/h SW -1,6 C -8,8 C 14,0 km/h
10.02.2018 21:00 2,2 C 77 % 1014,8 hPa 0,0 l/m 22,0 km/h SW -1,4 C -7,6 C 12,2 km/h
10.02.2018 22:00 2,1 C 77 % 1014,4 hPa 0,0 l/m 11,7 km/h S -1,5 C -2,4 C 6,5 km/h
10.02.2018 23:00 2,3 C 78 % 1013,5 hPa 0,0 l/m 11,0 km/h S-SW -1,1 C -1,7 C 6,1 km/h
11.02.2018 00:00 2,2 C 79 % 1013,1 hPa 0,0 l/m 14,3 km/h S -1,1 C -3,9 C 7,9 km/h
11.02.2018 01:00 2,1 C 79 % 1012,1 hPa 0,0 l/m 22,7 km/h S -1,2 C -8,0 C 12,6 km/h
11.02.2018 02:00 1,9 C 80 % 1011,7 hPa 0,0 l/m 21,4 km/h SW -1,2 C -7,8 C 11,9 km/h
11.02.2018 03:00 1,8 C 77 % 1010,4 hPa 0,0 l/m 1,3 km/h S-SW -1,8 C 1,8 C 0,7 km/h
11.02.2018 04:00 2,1 C 74 % 1009,9 hPa 0,0 l/m 7,1 km/h W-SW -2,0 C 1,4 C 4,0 km/h
11.02.2018 05:00 2,2 C 70 % 1009,1 hPa 0,0 l/m 3,2 km/h S -2,7 C 2,2 C 1,8 km/h
11.02.2018 06:00 2,1 C 69 % 1008,1 hPa 0,0 l/m 12,3 km/h S-SW -3,0 C -2,8 C 6,8 km/h
11.02.2018 07:00 2,5 C 67 % 1007,7 hPa 0,0 l/m 24,0 km/h S -3,0 C -8,0 C 13,3 km/h
11.02.2018 08:00 2,6 C 68 % 1006,8 hPa 0,0 l/m 0,0 km/h W-SW -2,7 C 2,6 C 0,0 km/h
11.02.2018 09:00 3,1 C 70 % 1006,5 hPa 0,0 l/m 6,5 km/h S -1,8 C 3,0 C 3,6 km/h
11.02.2018 10:00 2,3 C 78 % 1006,5 hPa 0,0 l/m 0,0 km/h S -1,1 C 2,3 C 0,0 km/h
11.02.2018 11:00 3,4 C 79 % 1006,2 hPa 0,0 l/m 15,6 km/h W 0,1 C -3,2 C 8,6 km/h
11.02.2018 12:00 4,4 C 81 % 1005,4 hPa 0,0 l/m 20,1 km/h SW 1,4 C -4,0 C 11,2 km/h
11.02.2018 13:00 5,2 C 80 % 1005,0 hPa 0,0 l/m 24,6 km/h W 2,0 C -4,5 C 13,7 km/h
11.02.2018 14:00 4,8 C 81 % 1005,0 hPa 0,0 l/m 29,2 km/h W 1,8 C -6,4 C 16,2 km/h
11.02.2018 15:00 4,7 C 83 % 1004,6 hPa 0,0 l/m 22,7 km/h W-SW 2,1 C -4,6 C 12,6 km/h
11.02.2018 16:00 4,4 C 84 % 1004,9 hPa 0,0 l/m 17,5 km/h W 1,9 C -2,9 C 9,7 km/h
11.02.2018 17:00 4,0 C 85 % 1005,4 hPa 0,0 l/m 20,1 km/h W 1,7 C -4,5 C 11,2 km/h
11.02.2018 18:00 3,7 C 85 % 1006,4 hPa 0,0 l/m 6,5 km/h SW 1,4 C 3,6 C 3,6 km/h
11.02.2018 19:00 3,3 C 86 % 1006,8 hPa 0,0 l/m 0,0 km/h SW 1,2 C 3,3 C 0,0 km/h
11.02.2018 20:00 3,2 C 86 % 1007,6 hPa 0,0 l/m 3,9 km/h SW 1,1 C 3,2 C 2,2 km/h
11.02.2018 21:00 3,0 C 86 % 1007,9 hPa 0,0 l/m 0,0 km/h S 0,9 C 3,0 C 0,0 km/h
11.02.2018 22:00 2,8 C 86 % 1007,9 hPa 0,0 l/m 11,0 km/h S 0,7 C -1,1 C 6,1 km/h
11.02.2018 23:00 3,7 C 84 % 1008,0 hPa 0,0 l/m 0,0 km/h NW 1,3 C 3,7 C 0,0 km/h
Min-Datum _ 06.02.18 06.02.18 11.02.18 - 05.02.18 - 06.02.18 10.02.18 05.02.18
_ Min-Zeit 20:53 14:53 15:53 - 00:53 - 20:53 20:53 00:53
Minimum _ -2,4 C 61 % 1004,6 hPa - 0,0 km/h - -4,7 C -8,8 C 0,0 km/h
Max-Datum _ 06.02.18 05.02.18 05.02.18 08.02.18 11.02.18 - 05.02.18 06.02.18 11.02.18
_ Max-Zeit 14:53 00:53 07:53 11:53 14:53 - 14:53 14:53 14:53
Maximum _ 9,5 C 86 % 1017,1 hPa 0,5 l/m 29,2 km/h
W
- 2,8 C 9,5 C 16,2 km/h
W
Durchschnitt _ 1,7 C 82 % 1012,3 hPa #1,0 l/m 3,2 km/h W -1,2 C 0,5 C 1,8 km/h
www.sexauwetter.de